Huvudsida
METAR-TAF:

METAR-TAF

Flygplatser :

Alicante-Elches flygplats

Alicante, Spanien

latitud: 38-17N, longitud: 000-33W, höjd: 43 m

Aktuellt väderrapport

Denna rapport gjordes för 25 minuter sedan, klockan 04:00 UTC
Vind 2 kt från väst/nordväst
Temperatur 22°C
Fuktighet 73%
Tryck 1019 hPa
Sikt 10 km eller mer
Inga moln under 1 500 m eller inga cumulonimbus

METAR: LEAL 230400Z 30002KT CAVOK 22/17 Q1019 NOSIG

Tid: 06:25 (04:25 UTC)

Väderprognos

Denna rapport gjordes för 5 timmar och 25 minuter sedan, klockan 23:00 UTC
Prognos gäller från 23 kl. 00 UTC till 23 kl. 24 UTC
Vind 3 kt varierande vindriktning
Sikt 10 km eller mer
Få moln på en höjd av 2500 ft
Blir
från 23 kl. 09 UTC till 23 kl. 11 UTC
Vind 8 kt från syd
Blir
från 23 kl. 18 UTC till 23 kl. 20 UTC
Vind 3 kt varierande vindriktning

TAF: LEAL 222300Z 2300/2324 VRB03KT 9999 FEW025 TX32/2312Z TN22/2305Z BECMG 2309/2311 17008KT BECMG 2318/2320 VRB03KT

Aktuella väderrapporter och prognoser från 4000 flygplatser (METAR- och TAF-rapporter).

De tillgängliga stationerna syns som gula och röda prickar på kartan.

För musen över prickarna för att se namnen på stationerna.

Klicka sedan för att få väderrapporter och prognoser.

För att ändra kartan: Klicka på de gröna knapparna med ett svart kors på för att zooma in; den gröna knappen med ett streck på för att zooma ut; eller på de gröna pilarna för angränsande kartor.


METAR-TAF: